sensor_id;sensor_type;location;lat;lon;timestamp;P1;durP1;ratioP1;P2;durP2;ratioP2
57107;SDS011;42987;52.916;6.542;2022-09-12T00:00:09;9.82;;;8.82;;
57107;SDS011;42987;52.916;6.542;2022-09-12T00:02:35;9.57;;;8.77;;
57107;SDS011;42987;52.916;6.542;2022-09-12T00:05:02;8.90;;;8.00;;
57107;SDS011;42987;52.916;6.542;2022-09-12T00:07:28;7.90;;;7.18;;
57107;SDS011;42987;52.916;6.542;2022-09-12T00:09:54;9.48;;;8.30;;
57107;SDS011;42987;52.916;6.542;2022-09-12T00:12:19;8.23;;;7.53;;
57107;SDS011;42987;52.916;6.542;2022-09-12T00:14:45;9.85;;;8.95;;
57107;SDS011;42987;52.916;6.542;2022-09-12T00:17:11;8.65;;;7.93;;
57107;SDS011;42987;52.916;6.542;2022-09-12T00:19:37;8.73;;;8.02;;
57107;SDS011;42987;52.916;6.542;2022-09-12T00:22:02;8.98;;;8.27;;
57107;SDS011;42987;52.916;6.542;2022-09-12T00:24:28;11.13;;;10.05;;
57107;SDS011;42987;52.916;6.542;2022-09-12T00:26:55;9.90;;;9.00;;
57107;SDS011;42987;52.916;6.542;2022-09-12T00:29:21;11.40;;;10.43;;
57107;SDS011;42987;52.916;6.542;2022-09-12T00:31:47;9.80;;;8.90;;
57107;SDS011;42987;52.916;6.542;2022-09-12T00:34:13;8.55;;;7.85;;
57107;SDS011;42987;52.916;6.542;2022-09-12T00:36:39;12.68;;;11.65;;
57107;SDS011;42987;52.916;6.542;2022-09-12T00:39:09;12.95;;;11.70;;
57107;SDS011;42987;52.916;6.542;2022-09-12T00:41:39;14.57;;;13.38;;
57107;SDS011;42987;52.916;6.542;2022-09-12T00:46:43;15.50;;;14.20;;
57107;SDS011;42987;52.916;6.542;2022-09-12T00:49:11;15.35;;;13.95;;
57107;SDS011;42987;52.916;6.542;2022-09-12T00:51:38;14.35;;;13.20;;
57107;SDS011;42987;52.916;6.542;2022-09-12T00:54:09;16.27;;;14.98;;
57107;SDS011;42987;52.916;6.542;2022-09-12T00:56:40;16.08;;;14.57;;
57107;SDS011;42987;52.916;6.542;2022-09-12T00:59:12;14.13;;;12.88;;
57107;SDS011;42987;52.916;6.542;2022-09-12T01:01:42;15.80;;;14.32;;
57107;SDS011;42987;52.916;6.542;2022-09-12T01:04:11;13.27;;;12.20;;
57107;SDS011;42987;52.916;6.542;2022-09-12T01:06:39;13.35;;;12.32;;
57107;SDS011;42987;52.916;6.542;2022-09-12T01:09:05;15.48;;;14.18;;
57107;SDS011;42987;52.916;6.542;2022-09-12T01:11:36;18.98;;;17.27;;
57107;SDS011;42987;52.916;6.542;2022-09-12T01:14:03;17.20;;;15.70;;
57107;SDS011;42987;52.916;6.542;2022-09-12T01:16:30;20.25;;;18.52;;
57107;SDS011;42987;52.916;6.542;2022-09-12T01:19:03;18.67;;;17.27;;
57107;SDS011;42987;52.916;6.542;2022-09-12T01:24:50;18.90;;;17.33;;
57107;SDS011;42987;52.916;6.542;2022-09-12T01:27:45;18.73;;;17.23;;
57107;SDS011;42987;52.916;6.542;2022-09-12T01:30:25;21.77;;;19.83;;
57107;SDS011;42987;52.916;6.542;2022-09-12T01:33:41;18.35;;;16.85;;
57107;SDS011;42987;52.916;6.542;2022-09-12T01:39:18;22.83;;;20.75;;
57107;SDS011;42987;52.916;6.542;2022-09-12T01:41:53;23.33;;;21.33;;
57107;SDS011;42987;52.916;6.542;2022-09-12T01:47:11;28.42;;;26.02;;
57107;SDS011;42987;52.916;6.542;2022-09-12T01:52:36;25.33;;;23.23;;
57107;SDS011;42987;52.916;6.542;2022-09-12T01:55:10;26.70;;;24.20;;
57107;SDS011;42987;52.916;6.542;2022-09-12T01:57:47;26.95;;;24.60;;
57107;SDS011;42987;52.916;6.542;2022-09-12T02:00:18;26.75;;;24.48;;
57107;SDS011;42987;52.916;6.542;2022-09-12T02:03:30;29.73;;;27.20;;
57107;SDS011;42987;52.916;6.542;2022-09-12T02:05:44;28.85;;;26.45;;
57107;SDS011;42987;52.916;6.542;2022-09-12T02:08:17;32.35;;;29.50;;
57107;SDS011;42987;52.916;6.542;2022-09-12T02:10:56;33.25;;;30.48;;
57107;SDS011;42987;52.916;6.542;2022-09-12T02:13:36;49.13;;;43.80;;
57107;SDS011;42987;52.916;6.542;2022-09-12T02:16:38;39.00;;;35.60;;
57107;SDS011;42987;52.916;6.542;2022-09-12T02:19:06;53.90;;;48.30;;
57107;SDS011;42987;52.916;6.542;2022-09-12T02:21:35;75.05;;;52.70;;
57107;SDS011;42987;52.916;6.542;2022-09-12T02:24:04;42.53;;;38.47;;
57107;SDS011;42987;52.916;6.542;2022-09-12T02:26:58;45.55;;;41.25;;
57107;SDS011;42987;52.916;6.542;2022-09-12T02:29:23;56.17;;;49.13;;
57107;SDS011;42987;52.916;6.542;2022-09-12T02:31:54;47.15;;;42.55;;
57107;SDS011;42987;52.916;6.542;2022-09-12T02:36:51;41.83;;;37.90;;
57107;SDS011;42987;52.916;6.542;2022-09-12T02:39:25;78.72;;;54.83;;
57107;SDS011;42987;52.916;6.542;2022-09-12T02:41:55;52.27;;;46.87;;
57107;SDS011;42987;52.916;6.542;2022-09-12T02:44:23;48.83;;;43.97;;
57107;SDS011;42987;52.916;6.542;2022-09-12T02:47:02;47.75;;;43.13;;
57107;SDS011;42987;52.916;6.542;2022-09-12T02:49:29;46.83;;;42.15;;
57107;SDS011;42987;52.916;6.542;2022-09-12T02:51:55;38.63;;;35.22;;
57107;SDS011;42987;52.916;6.542;2022-09-12T02:54:21;40.40;;;36.67;;
57107;SDS011;42987;52.916;6.542;2022-09-12T02:56:48;39.10;;;35.70;;
57107;SDS011;42987;52.916;6.542;2022-09-12T02:59:15;41.92;;;37.95;;
57107;SDS011;42987;52.916;6.542;2022-09-12T03:07:25;38.13;;;34.70;;
57107;SDS011;42987;52.916;6.542;2022-09-12T03:16:57;43.42;;;39.17;;
57107;SDS011;42987;52.916;6.542;2022-09-12T03:19:49;45.83;;;41.40;;
57107;SDS011;42987;52.916;6.542;2022-09-12T03:25:27;46.47;;;41.75;;
57107;SDS011;42987;52.916;6.542;2022-09-12T03:28:34;42.03;;;38.10;;
57107;SDS011;42987;52.916;6.542;2022-09-12T03:31:11;48.38;;;43.15;;
57107;SDS011;42987;52.916;6.542;2022-09-12T03:33:41;48.22;;;42.55;;
57107;SDS011;42987;52.916;6.542;2022-09-12T03:36:29;47.88;;;42.88;;
57107;SDS011;42987;52.916;6.542;2022-09-12T03:38:54;45.25;;;40.65;;
57107;SDS011;42987;52.916;6.542;2022-09-12T03:41:21;42.95;;;38.75;;
57107;SDS011;42987;52.916;6.542;2022-09-12T03:43:46;42.33;;;38.03;;
57107;SDS011;42987;52.916;6.542;2022-09-12T03:46:16;42.75;;;38.67;;
57107;SDS011;42987;52.916;6.542;2022-09-12T03:48:41;41.78;;;37.97;;
57107;SDS011;42987;52.916;6.542;2022-09-12T03:51:08;46.33;;;41.72;;
57107;SDS011;42987;52.916;6.542;2022-09-12T03:53:34;47.45;;;42.55;;
57107;SDS011;42987;52.916;6.542;2022-09-12T03:56:07;47.80;;;42.95;;
57107;SDS011;42987;52.916;6.542;2022-09-12T03:58:35;42.60;;;38.50;;
57107;SDS011;42987;52.916;6.542;2022-09-12T04:01:08;42.20;;;38.03;;
57107;SDS011;42987;52.916;6.542;2022-09-12T04:03:40;42.13;;;38.03;;
57107;SDS011;42987;52.916;6.542;2022-09-12T04:06:10;44.65;;;40.08;;
57107;SDS011;42987;52.916;6.542;2022-09-12T04:08:38;46.17;;;41.03;;
57107;SDS011;42987;52.916;6.542;2022-09-12T04:11:14;40.67;;;36.85;;
57107;SDS011;42987;52.916;6.542;2022-09-12T04:13:40;42.50;;;38.47;;
57107;SDS011;42987;52.916;6.542;2022-09-12T04:16:12;43.55;;;39.30;;
57107;SDS011;42987;52.916;6.542;2022-09-12T04:18:38;42.38;;;38.25;;
57107;SDS011;42987;52.916;6.542;2022-09-12T04:21:05;42.25;;;38.03;;
57107;SDS011;42987;52.916;6.542;2022-09-12T04:23:32;38.63;;;35.13;;
57107;SDS011;42987;52.916;6.542;2022-09-12T04:25:59;37.28;;;33.88;;
57107;SDS011;42987;52.916;6.542;2022-09-12T04:28:26;39.03;;;35.33;;
57107;SDS011;42987;52.916;6.542;2022-09-12T04:33:25;38.08;;;34.67;;
57107;SDS011;42987;52.916;6.542;2022-09-12T04:35:51;42.55;;;38.60;;
57107;SDS011;42987;52.916;6.542;2022-09-12T04:38:17;41.17;;;37.28;;
57107;SDS011;42987;52.916;6.542;2022-09-12T04:40:42;43.65;;;39.45;;
57107;SDS011;42987;52.916;6.542;2022-09-12T04:43:08;39.38;;;35.85;;
57107;SDS011;42987;52.916;6.542;2022-09-12T04:45:34;47.13;;;41.88;;
57107;SDS011;42987;52.916;6.542;2022-09-12T04:48:00;46.17;;;41.53;;
57107;SDS011;42987;52.916;6.542;2022-09-12T04:50:26;41.28;;;37.40;;
57107;SDS011;42987;52.916;6.542;2022-09-12T04:52:52;42.88;;;38.80;;
57107;SDS011;42987;52.916;6.542;2022-09-12T04:55:19;47.63;;;42.80;;
57107;SDS011;42987;52.916;6.542;2022-09-12T04:57:46;65.10;;;52.50;;
57107;SDS011;42987;52.916;6.542;2022-09-12T05:00:13;48.80;;;43.53;;
57107;SDS011;42987;52.916;6.542;2022-09-12T05:02:39;49.95;;;44.95;;
57107;SDS011;42987;52.916;6.542;2022-09-12T05:05:06;51.92;;;46.35;;
57107;SDS011;42987;52.916;6.542;2022-09-12T05:07:32;54.15;;;47.13;;
57107;SDS011;42987;52.916;6.542;2022-09-12T05:09:58;50.08;;;45.08;;
57107;SDS011;42987;52.916;6.542;2022-09-12T05:12:28;50.25;;;45.00;;
57107;SDS011;42987;52.916;6.542;2022-09-12T05:14:55;84.18;;;59.10;;
57107;SDS011;42987;52.916;6.542;2022-09-12T05:17:21;55.10;;;49.33;;
57107;SDS011;42987;52.916;6.542;2022-09-12T05:19:47;56.50;;;50.22;;
57107;SDS011;42987;52.916;6.542;2022-09-12T05:22:13;60.60;;;53.00;;
57107;SDS011;42987;52.916;6.542;2022-09-12T05:24:39;66.57;;;55.08;;
57107;SDS011;42987;52.916;6.542;2022-09-12T05:27:07;88.57;;;61.63;;
57107;SDS011;42987;52.916;6.542;2022-09-12T05:29:33;60.40;;;53.53;;
57107;SDS011;42987;52.916;6.542;2022-09-12T05:32:03;58.35;;;51.22;;
57107;SDS011;42987;52.916;6.542;2022-09-12T05:34:29;81.20;;;61.13;;
57107;SDS011;42987;52.916;6.542;2022-09-12T05:36:55;59.53;;;53.00;;
57107;SDS011;42987;52.916;6.542;2022-09-12T05:39:20;82.07;;;62.15;;
57107;SDS011;42987;52.916;6.542;2022-09-12T05:41:46;60.28;;;53.47;;
57107;SDS011;42987;52.916;6.542;2022-09-12T05:44:12;65.90;;;54.88;;
57107;SDS011;42987;52.916;6.542;2022-09-12T05:46:39;63.97;;;54.75;;
57107;SDS011;42987;52.916;6.542;2022-09-12T05:49:10;60.85;;;53.20;;
57107;SDS011;42987;52.916;6.542;2022-09-12T05:51:38;82.93;;;61.78;;
57107;SDS011;42987;52.916;6.542;2022-09-12T05:54:06;65.82;;;55.90;;
57107;SDS011;42987;52.916;6.542;2022-09-12T05:56:36;77.80;;;60.03;;
57107;SDS011;42987;52.916;6.542;2022-09-12T05:59:05;100.13;;;65.72;;
57107;SDS011;42987;52.916;6.542;2022-09-12T06:01:42;72.00;;;58.47;;
57107;SDS011;42987;52.916;6.542;2022-09-12T06:04:09;56.72;;;50.50;;
57107;SDS011;42987;52.916;6.542;2022-09-12T06:06:38;63.85;;;53.15;;
57107;SDS011;42987;52.916;6.542;2022-09-12T06:09:12;69.63;;;56.35;;
57107;SDS011;42987;52.916;6.542;2022-09-12T06:11:40;67.82;;;56.15;;
57107;SDS011;42987;52.916;6.542;2022-09-12T06:14:07;76.65;;;59.13;;
57107;SDS011;42987;52.916;6.542;2022-09-12T06:16:35;68.47;;;56.60;;
57107;SDS011;42987;52.916;6.542;2022-09-12T06:19:20;63.97;;;53.78;;
57107;SDS011;42987;52.916;6.542;2022-09-12T06:21:51;63.92;;;52.20;;
57107;SDS011;42987;52.916;6.542;2022-09-12T06:24:18;54.92;;;48.40;;
57107;SDS011;42987;52.916;6.542;2022-09-12T06:26:46;61.95;;;53.42;;
57107;SDS011;42987;52.916;6.542;2022-09-12T06:29:15;71.50;;;56.17;;
57107;SDS011;42987;52.916;6.542;2022-09-12T06:34:11;65.38;;;54.03;;
57107;SDS011;42987;52.916;6.542;2022-09-12T06:36:39;67.90;;;56.08;;
57107;SDS011;42987;52.916;6.542;2022-09-12T06:39:09;67.88;;;57.13;;
57107;SDS011;42987;52.916;6.542;2022-09-12T06:41:43;60.70;;;53.50;;
57107;SDS011;42987;52.916;6.542;2022-09-12T06:44:13;63.03;;;52.38;;
57107;SDS011;42987;52.916;6.542;2022-09-12T06:46:41;58.85;;;51.75;;
57107;SDS011;42987;52.916;6.542;2022-09-12T06:49:07;62.92;;;54.47;;
57107;SDS011;42987;52.916;6.542;2022-09-12T06:51:33;65.68;;;55.08;;
57107;SDS011;42987;52.916;6.542;2022-09-12T06:54:02;58.03;;;51.20;;
57107;SDS011;42987;52.916;6.542;2022-09-12T06:56:28;58.25;;;50.90;;
57107;SDS011;42987;52.916;6.542;2022-09-12T06:58:56;65.30;;;55.85;;
57107;SDS011;42987;52.916;6.542;2022-09-12T07:01:24;67.50;;;54.78;;
57107;SDS011;42987;52.916;6.542;2022-09-12T07:03:52;74.90;;;57.67;;
57107;SDS011;42987;52.916;6.542;2022-09-12T07:06:24;63.58;;;53.13;;
57107;SDS011;42987;52.916;6.542;2022-09-12T07:08:59;60.55;;;51.25;;
57107;SDS011;42987;52.916;6.542;2022-09-12T07:11:30;65.38;;;54.15;;
57107;SDS011;42987;52.916;6.542;2022-09-12T07:14:12;59.28;;;51.75;;
57107;SDS011;42987;52.916;6.542;2022-09-12T07:16:39;56.38;;;48.13;;
57107;SDS011;42987;52.916;6.542;2022-09-12T07:19:08;69.82;;;53.78;;
57107;SDS011;42987;52.916;6.542;2022-09-12T07:21:37;56.85;;;50.03;;
57107;SDS011;42987;52.916;6.542;2022-09-12T07:24:04;58.03;;;50.00;;
57107;SDS011;42987;52.916;6.542;2022-09-12T07:26:32;59.15;;;50.45;;
57107;SDS011;42987;52.916;6.542;2022-09-12T07:28:58;68.00;;;53.90;;
57107;SDS011;42987;52.916;6.542;2022-09-12T07:31:24;58.30;;;50.05;;
57107;SDS011;42987;52.916;6.542;2022-09-12T07:33:51;59.33;;;49.63;;
57107;SDS011;42987;52.916;6.542;2022-09-12T07:36:18;57.92;;;51.60;;
57107;SDS011;42987;52.916;6.542;2022-09-12T07:38:46;60.03;;;49.92;;
57107;SDS011;42987;52.916;6.542;2022-09-12T07:41:19;58.58;;;50.28;;
57107;SDS011;42987;52.916;6.542;2022-09-12T07:43:50;52.67;;;46.17;;
57107;SDS011;42987;52.916;6.542;2022-09-12T07:46:17;53.85;;;46.10;;
57107;SDS011;42987;52.916;6.542;2022-09-12T07:48:43;55.22;;;48.25;;
57107;SDS011;42987;52.916;6.542;2022-09-12T07:51:13;50.67;;;44.85;;
57107;SDS011;42987;52.916;6.542;2022-09-12T07:53:41;50.05;;;44.58;;
57107;SDS011;42987;52.916;6.542;2022-09-12T07:56:10;52.83;;;44.95;;
57107;SDS011;42987;52.916;6.542;2022-09-12T07:58:37;49.67;;;43.75;;
57107;SDS011;42987;52.916;6.542;2022-09-12T08:01:05;47.47;;;42.05;;
57107;SDS011;42987;52.916;6.542;2022-09-12T08:03:36;45.60;;;40.58;;
57107;SDS011;42987;52.916;6.542;2022-09-12T08:06:07;51.55;;;44.53;;
57107;SDS011;42987;52.916;6.542;2022-09-12T08:08:34;45.58;;;40.63;;
57107;SDS011;42987;52.916;6.542;2022-09-12T08:11:03;47.35;;;41.15;;
57107;SDS011;42987;52.916;6.542;2022-09-12T08:13:32;46.42;;;40.65;;
57107;SDS011;42987;52.916;6.542;2022-09-12T08:15:59;43.20;;;38.55;;
57107;SDS011;42987;52.916;6.542;2022-09-12T08:18:26;41.38;;;36.88;;
57107;SDS011;42987;52.916;6.542;2022-09-12T08:20:56;43.88;;;38.47;;
57107;SDS011;42987;52.916;6.542;2022-09-12T08:25:49;43.88;;;38.90;;
57107;SDS011;42987;52.916;6.542;2022-09-12T08:28:16;43.13;;;38.63;;
57107;SDS011;42987;52.916;6.542;2022-09-12T08:30:42;40.42;;;36.00;;
57107;SDS011;42987;52.916;6.542;2022-09-12T08:33:07;45.85;;;40.80;;
57107;SDS011;42987;52.916;6.542;2022-09-12T08:35:33;44.25;;;38.22;;
57107;SDS011;42987;52.916;6.542;2022-09-12T08:37:59;42.72;;;38.13;;
57107;SDS011;42987;52.916;6.542;2022-09-12T08:40:27;41.67;;;37.03;;
57107;SDS011;42987;52.916;6.542;2022-09-12T08:45:56;43.67;;;38.85;;
57107;SDS011;42987;52.916;6.542;2022-09-12T08:48:28;44.92;;;40.00;;
57107;SDS011;42987;52.916;6.542;2022-09-12T08:50:55;42.85;;;38.22;;
57107;SDS011;42987;52.916;6.542;2022-09-12T08:53:23;46.63;;;41.45;;
57107;SDS011;42987;52.916;6.542;2022-09-12T08:58:24;48.03;;;42.83;;
57107;SDS011;42987;52.916;6.542;2022-09-12T09:09:53;50.47;;;44.55;;
57107;SDS011;42987;52.916;6.542;2022-09-12T09:17:42;54.00;;;46.38;;
57107;SDS011;42987;52.916;6.542;2022-09-12T09:23:39;50.30;;;44.10;;
57107;SDS011;42987;52.916;6.542;2022-09-12T09:28:38;51.17;;;45.60;;
57107;SDS011;42987;52.916;6.542;2022-09-12T09:31:13;49.30;;;43.90;;
57107;SDS011;42987;52.916;6.542;2022-09-12T09:33:43;48.53;;;43.33;;
57107;SDS011;42987;52.916;6.542;2022-09-12T09:36:20;54.60;;;47.83;;
57107;SDS011;42987;52.916;6.542;2022-09-12T09:39:37;54.35;;;47.38;;
57107;SDS011;42987;52.916;6.542;2022-09-12T09:44:52;53.90;;;46.15;;
57107;SDS011;42987;52.916;6.542;2022-09-12T09:47:20;54.80;;;46.47;;
57107;SDS011;42987;52.916;6.542;2022-09-12T09:49:46;53.17;;;44.03;;
57107;SDS011;42987;52.916;6.542;2022-09-12T09:52:14;52.67;;;43.25;;
57107;SDS011;42987;52.916;6.542;2022-09-12T10:05:46;41.28;;;36.78;;
57107;SDS011;42987;52.916;6.542;2022-09-12T10:08:21;40.30;;;35.90;;
57107;SDS011;42987;52.916;6.542;2022-09-12T10:11:38;36.72;;;32.85;;
57107;SDS011;42987;52.916;6.542;2022-09-12T10:18:57;31.30;;;26.98;;
57107;SDS011;42987;52.916;6.542;2022-09-12T10:23:58;31.80;;;28.50;;
57107;SDS011;42987;52.916;6.542;2022-09-12T10:26:32;29.75;;;26.55;;
57107;SDS011;42987;52.916;6.542;2022-09-12T10:29:04;32.97;;;29.58;;
57107;SDS011;42987;52.916;6.542;2022-09-12T10:31:49;30.70;;;27.52;;
57107;SDS011;42987;52.916;6.542;2022-09-12T10:34:23;27.85;;;25.05;;
57107;SDS011;42987;52.916;6.542;2022-09-12T10:37:14;30.08;;;26.92;;
57107;SDS011;42987;52.916;6.542;2022-09-12T10:40:19;27.45;;;24.65;;
57107;SDS011;42987;52.916;6.542;2022-09-12T10:42:55;30.93;;;27.70;;
57107;SDS011;42987;52.916;6.542;2022-09-12T10:47:49;29.85;;;26.63;;
57107;SDS011;42987;52.916;6.542;2022-09-12T10:50:20;29.45;;;26.42;;
57107;SDS011;42987;52.916;6.542;2022-09-12T10:53:13;28.38;;;25.40;;
57107;SDS011;42987;52.916;6.542;2022-09-12T10:55:55;25.00;;;22.40;;
57107;SDS011;42987;52.916;6.542;2022-09-12T11:01:21;26.15;;;23.40;;
57107;SDS011;42987;52.916;6.542;2022-09-12T11:09:55;20.25;;;18.10;;
57107;SDS011;42987;52.916;6.542;2022-09-12T11:12:40;24.40;;;21.80;;
57107;SDS011;42987;52.916;6.542;2022-09-12T11:18:09;19.33;;;16.92;;
57107;SDS011;42987;52.916;6.542;2022-09-12T11:29:20;22.38;;;18.58;;
57107;SDS011;42987;52.916;6.542;2022-09-12T11:37:26;20.13;;;17.77;;
57107;SDS011;42987;52.916;6.542;2022-09-12T11:48:39;17.00;;;15.02;;
57107;SDS011;42987;52.916;6.542;2022-09-12T11:51:31;15.25;;;13.32;;
57107;SDS011;42987;52.916;6.542;2022-09-12T11:54:03;16.35;;;13.30;;
57107;SDS011;42987;52.916;6.542;2022-09-12T11:56:36;16.33;;;13.63;;
57107;SDS011;42987;52.916;6.542;2022-09-12T11:59:25;15.50;;;13.90;;
57107;SDS011;42987;52.916;6.542;2022-09-12T12:02:04;15.45;;;12.68;;
57107;SDS011;42987;52.916;6.542;2022-09-12T12:04:39;14.77;;;13.27;;
57107;SDS011;42987;52.916;6.542;2022-09-12T12:07:15;16.38;;;14.68;;
57107;SDS011;42987;52.916;6.542;2022-09-12T12:09:45;14.65;;;13.15;;
57107;SDS011;42987;52.916;6.542;2022-09-12T12:12:15;16.50;;;14.68;;
57107;SDS011;42987;52.916;6.542;2022-09-12T12:14:52;16.40;;;14.50;;
57107;SDS011;42987;52.916;6.542;2022-09-12T12:17:20;16.55;;;14.90;;
57107;SDS011;42987;52.916;6.542;2022-09-12T12:20:00;15.18;;;13.52;;
57107;SDS011;42987;52.916;6.542;2022-09-12T12:22:28;13.90;;;12.38;;
57107;SDS011;42987;52.916;6.542;2022-09-12T12:27:46;15.77;;;11.85;;
57107;SDS011;42987;52.916;6.542;2022-09-12T12:35:39;17.80;;;13.55;;
57107;SDS011;42987;52.916;6.542;2022-09-12T12:38:35;16.75;;;12.82;;
57107;SDS011;42987;52.916;6.542;2022-09-12T12:43:51;12.27;;;9.93;;
57107;SDS011;42987;52.916;6.542;2022-09-12T12:46:24;13.57;;;10.73;;
57107;SDS011;42987;52.916;6.542;2022-09-12T12:48:53;12.55;;;11.18;;
57107;SDS011;42987;52.916;6.542;2022-09-12T12:51:47;11.45;;;10.25;;
57107;SDS011;42987;52.916;6.542;2022-09-12T12:54:34;10.85;;;8.50;;
57107;SDS011;42987;52.916;6.542;2022-09-12T12:59:49;8.40;;;7.53;;
57107;SDS011;42987;52.916;6.542;2022-09-12T13:04:52;8.68;;;7.20;;
57107;SDS011;42987;52.916;6.542;2022-09-12T13:07:37;9.35;;;7.18;;
57107;SDS011;42987;52.916;6.542;2022-09-12T13:10:05;8.43;;;6.03;;
57107;SDS011;42987;52.916;6.542;2022-09-12T13:12:36;8.68;;;7.45;;
57107;SDS011;42987;52.916;6.542;2022-09-12T13:18:11;7.32;;;6.47;;
57107;SDS011;42987;52.916;6.542;2022-09-12T13:20:47;8.98;;;6.85;;
57107;SDS011;42987;52.916;6.542;2022-09-12T13:23:20;8.30;;;6.28;;
57107;SDS011;42987;52.916;6.542;2022-09-12T13:25:51;9.80;;;7.68;;
57107;SDS011;42987;52.916;6.542;2022-09-12T13:28:19;6.85;;;5.90;;
57107;SDS011;42987;52.916;6.542;2022-09-12T13:30:57;7.18;;;5.03;;
57107;SDS011;42987;52.916;6.542;2022-09-12T13:33:44;6.45;;;5.30;;
57107;SDS011;42987;52.916;6.542;2022-09-12T13:36:19;6.95;;;6.25;;
57107;SDS011;42987;52.916;6.542;2022-09-12T13:44:42;9.18;;;7.30;;
57107;SDS011;42987;52.916;6.542;2022-09-12T13:47:15;10.60;;;9.57;;
57107;SDS011;42987;52.916;6.542;2022-09-12T13:49:49;10.10;;;8.07;;
57107;SDS011;42987;52.916;6.542;2022-09-12T13:52:19;8.65;;;7.63;;
57107;SDS011;42987;52.916;6.542;2022-09-12T13:54:50;8.98;;;8.05;;
57107;SDS011;42987;52.916;6.542;2022-09-12T13:57:30;9.77;;;8.77;;
57107;SDS011;42987;52.916;6.542;2022-09-12T14:00:23;8.68;;;7.47;;
57107;SDS011;42987;52.916;6.542;2022-09-12T14:02:48;9.90;;;8.90;;
57107;SDS011;42987;52.916;6.542;2022-09-12T14:05:34;9.40;;;7.97;;
57107;SDS011;42987;52.916;6.542;2022-09-12T14:08:04;11.77;;;8.07;;
57107;SDS011;42987;52.916;6.542;2022-09-12T14:10:33;10.50;;;8.80;;
57107;SDS011;42987;52.916;6.542;2022-09-12T14:15:40;8.98;;;8.07;;
57107;SDS011;42987;52.916;6.542;2022-09-12T14:18:20;8.23;;;7.40;;
57107;SDS011;42987;52.916;6.542;2022-09-12T14:20:51;7.70;;;6.90;;
57107;SDS011;42987;52.916;6.542;2022-09-12T14:23:30;8.07;;;6.63;;
57107;SDS011;42987;52.916;6.542;2022-09-12T14:25:59;8.35;;;6.85;;
57107;SDS011;42987;52.916;6.542;2022-09-12T14:28:28;9.75;;;7.43;;
57107;SDS011;42987;52.916;6.542;2022-09-12T14:31:37;8.50;;;7.65;;
57107;SDS011;42987;52.916;6.542;2022-09-12T14:36:52;8.13;;;5.63;;
57107;SDS011;42987;52.916;6.542;2022-09-12T14:39:30;10.88;;;6.63;;
57107;SDS011;42987;52.916;6.542;2022-09-12T14:42:05;6.50;;;5.78;;
57107;SDS011;42987;52.916;6.542;2022-09-12T14:44:37;8.43;;;5.18;;
57107;SDS011;42987;52.916;6.542;2022-09-12T14:47:17;6.35;;;4.95;;
57107;SDS011;42987;52.916;6.542;2022-09-12T14:49:48;7.53;;;6.25;;
57107;SDS011;42987;52.916;6.542;2022-09-12T14:52:31;7.75;;;6.28;;
57107;SDS011;42987;52.916;6.542;2022-09-12T14:55:03;7.55;;;5.70;;
57107;SDS011;42987;52.916;6.542;2022-09-12T14:57:45;8.32;;;5.50;;
57107;SDS011;42987;52.916;6.542;2022-09-12T15:02:45;6.57;;;5.68;;
57107;SDS011;42987;52.916;6.542;2022-09-12T15:10:26;6.05;;;5.15;;
57107;SDS011;42987;52.916;6.542;2022-09-12T15:15:38;5.55;;;4.60;;
57107;SDS011;42987;52.916;6.542;2022-09-12T15:18:05;7.03;;;5.00;;
57107;SDS011;42987;52.916;6.542;2022-09-12T15:20:31;6.57;;;4.88;;
57107;SDS011;42987;52.916;6.542;2022-09-12T15:22:59;6.53;;;4.30;;
57107;SDS011;42987;52.916;6.542;2022-09-12T15:25:25;5.43;;;3.80;;
57107;SDS011;42987;52.916;6.542;2022-09-12T15:27:51;4.53;;;4.03;;
57107;SDS011;42987;52.916;6.542;2022-09-12T15:30:18;6.25;;;4.15;;
57107;SDS011;42987;52.916;6.542;2022-09-12T15:32:44;4.40;;;3.78;;
57107;SDS011;42987;52.916;6.542;2022-09-12T15:35:17;5.57;;;4.32;;
57107;SDS011;42987;52.916;6.542;2022-09-12T15:37:46;5.50;;;4.60;;
57107;SDS011;42987;52.916;6.542;2022-09-12T15:40:13;7.68;;;4.80;;
57107;SDS011;42987;52.916;6.542;2022-09-12T15:42:40;6.20;;;4.53;;
57107;SDS011;42987;52.916;6.542;2022-09-12T15:45:20;6.70;;;5.03;;
57107;SDS011;42987;52.916;6.542;2022-09-12T15:47:50;6.97;;;5.28;;
57107;SDS011;42987;52.916;6.542;2022-09-12T15:50:16;4.50;;;4.05;;
57107;SDS011;42987;52.916;6.542;2022-09-12T15:52:42;6.75;;;5.07;;
57107;SDS011;42987;52.916;6.542;2022-09-12T15:55:19;7.15;;;4.85;;
57107;SDS011;42987;52.916;6.542;2022-09-12T15:57:46;5.28;;;4.00;;
57107;SDS011;42987;52.916;6.542;2022-09-12T16:00:13;7.50;;;4.20;;
57107;SDS011;42987;52.916;6.542;2022-09-12T16:02:41;5.82;;;4.00;;
57107;SDS011;42987;52.916;6.542;2022-09-12T16:07:53;5.28;;;3.65;;
57107;SDS011;42987;52.916;6.542;2022-09-12T16:10:24;5.72;;;3.70;;
57107;SDS011;42987;52.916;6.542;2022-09-12T16:12:53;5.78;;;3.63;;
57107;SDS011;42987;52.916;6.542;2022-09-12T16:15:20;6.50;;;4.18;;
57107;SDS011;42987;52.916;6.542;2022-09-12T16:17:47;6.43;;;4.30;;
57107;SDS011;42987;52.916;6.542;2022-09-12T16:20:14;8.15;;;4.65;;
57107;SDS011;42987;52.916;6.542;2022-09-12T16:22:40;6.18;;;3.75;;
57107;SDS011;42987;52.916;6.542;2022-09-12T16:25:06;5.60;;;4.18;;
57107;SDS011;42987;52.916;6.542;2022-09-12T16:27:33;5.63;;;3.80;;
57107;SDS011;42987;52.916;6.542;2022-09-12T16:30:00;8.40;;;4.53;;
57107;SDS011;42987;52.916;6.542;2022-09-12T16:32:29;5.55;;;4.05;;
57107;SDS011;42987;52.916;6.542;2022-09-12T16:34:55;6.13;;;4.00;;
57107;SDS011;42987;52.916;6.542;2022-09-12T16:37:21;4.80;;;3.80;;
57107;SDS011;42987;52.916;6.542;2022-09-12T16:39:48;5.75;;;4.05;;
57107;SDS011;42987;52.916;6.542;2022-09-12T16:42:17;5.78;;;3.78;;
57107;SDS011;42987;52.916;6.542;2022-09-12T16:44:44;8.18;;;4.00;;
57107;SDS011;42987;52.916;6.542;2022-09-12T16:47:11;5.65;;;3.72;;
57107;SDS011;42987;52.916;6.542;2022-09-12T16:49:37;6.25;;;3.97;;
57107;SDS011;42987;52.916;6.542;2022-09-12T16:52:03;4.60;;;3.85;;
57107;SDS011;42987;52.916;6.542;2022-09-12T16:54:32;6.88;;;3.75;;
57107;SDS011;42987;52.916;6.542;2022-09-12T16:57:01;4.70;;;3.97;;
57107;SDS011;42987;52.916;6.542;2022-09-12T16:59:36;5.88;;;4.30;;
57107;SDS011;42987;52.916;6.542;2022-09-12T17:02:02;5.22;;;4.30;;
57107;SDS011;42987;52.916;6.542;2022-09-12T17:04:28;6.03;;;4.30;;
57107;SDS011;42987;52.916;6.542;2022-09-12T17:06:54;5.43;;;4.53;;
57107;SDS011;42987;52.916;6.542;2022-09-12T17:09:21;6.18;;;4.28;;
57107;SDS011;42987;52.916;6.542;2022-09-12T17:11:47;6.65;;;4.60;;
57107;SDS011;42987;52.916;6.542;2022-09-12T17:14:14;5.22;;;4.43;;
57107;SDS011;42987;52.916;6.542;2022-09-12T17:16:41;5.15;;;4.28;;
57107;SDS011;42987;52.916;6.542;2022-09-12T17:19:20;6.35;;;4.88;;
57107;SDS011;42987;52.916;6.542;2022-09-12T17:21:57;5.95;;;4.22;;
57107;SDS011;42987;52.916;6.542;2022-09-12T17:24:25;6.05;;;4.60;;
57107;SDS011;42987;52.916;6.542;2022-09-12T17:26:51;5.47;;;4.72;;
57107;SDS011;42987;52.916;6.542;2022-09-12T17:29:18;6.28;;;4.35;;
57107;SDS011;42987;52.916;6.542;2022-09-12T17:31:44;4.70;;;4.20;;
57107;SDS011;42987;52.916;6.542;2022-09-12T17:34:10;6.10;;;4.70;;
57107;SDS011;42987;52.916;6.542;2022-09-12T17:36:38;7.05;;;4.68;;
57107;SDS011;42987;52.916;6.542;2022-09-12T17:39:04;4.82;;;4.32;;
57107;SDS011;42987;52.916;6.542;2022-09-12T17:41:31;5.30;;;3.95;;